createdAt,value
2023-11-29T00:02:05.393Z,19.75
2023-11-29T00:07:08.520Z,16.20
2023-11-29T00:12:11.607Z,20.77
2023-11-29T00:17:14.332Z,26.58
2023-11-29T00:22:17.070Z,29.95
2023-11-29T00:27:19.743Z,22.75
2023-11-29T00:32:23.210Z,26.00
2023-11-29T00:37:25.967Z,20.63
2023-11-29T00:42:28.732Z,15.00
2023-11-29T00:47:31.801Z,13.32
2023-11-29T00:52:34.758Z,12.20
2023-11-29T00:57:37.894Z,9.38
2023-11-29T01:02:40.891Z,9.05
2023-11-29T01:07:43.949Z,10.82
2023-11-29T01:12:46.672Z,6.80
2023-11-29T01:17:49.883Z,8.82
2023-11-29T01:22:52.745Z,7.35
2023-11-29T01:27:55.702Z,8.57
2023-11-29T01:32:58.778Z,15.75
2023-11-29T01:38:01.863Z,8.77
2023-11-29T01:43:05.002Z,8.45
2023-11-29T01:48:08.199Z,7.70
2023-11-29T01:53:13.481Z,8.23
2023-11-29T01:58:18.478Z,7.07
2023-11-29T02:03:22.623Z,9.60
2023-11-29T02:08:26.404Z,7.00
2023-11-29T02:13:29.364Z,7.57
2023-11-29T02:18:32.465Z,6.10
2023-11-29T02:23:46.614Z,7.57
2023-11-29T02:28:49.300Z,6.40
2023-11-29T02:33:52.188Z,7.00
2023-11-29T02:38:55.119Z,6.88
2023-11-29T02:43:58.097Z,12.73
2023-11-29T02:49:00.901Z,12.05
2023-11-29T02:54:04.078Z,14.90
2023-11-29T02:59:07.089Z,12.60
2023-11-29T03:04:10.035Z,16.77
2023-11-29T03:09:12.975Z,19.42
2023-11-29T03:14:16.242Z,16.35
2023-11-29T03:19:19.264Z,14.38
2023-11-29T03:24:22.078Z,12.35
2023-11-29T03:29:25.966Z,15.77
2023-11-29T03:34:29.266Z,14.98
2023-11-29T03:39:32.323Z,14.85
2023-11-29T03:44:36.421Z,11.20
2023-11-29T03:49:39.601Z,11.45
2023-11-29T03:54:42.293Z,9.00
2023-11-29T03:59:45.476Z,14.00
2023-11-29T04:04:48.755Z,16.25
2023-11-29T04:09:58.241Z,14.95
2023-11-29T04:15:06.955Z,64.93
2023-11-29T04:20:09.999Z,10.85
2023-11-29T04:25:13.063Z,31.85
2023-11-29T04:30:16.207Z,21.90
2023-11-29T04:35:19.123Z,25.25
2023-11-29T04:40:22.062Z,70.18
2023-11-29T04:45:25.019Z,60.65
2023-11-29T04:50:28.046Z,34.67
2023-11-29T04:55:31.104Z,35.47
2023-11-29T05:00:33.866Z,39.33
2023-11-29T05:05:37.322Z,22.75
2023-11-29T05:10:40.426Z,18.75
2023-11-29T05:15:49.372Z,23.52
2023-11-29T05:20:52.514Z,59.80
2023-11-29T05:25:55.247Z,18.15
2023-11-29T05:30:59.565Z,46.22
2023-11-29T05:36:02.319Z,19.00
2023-11-29T05:41:06.647Z,41.65
2023-11-29T05:46:09.704Z,43.03
2023-11-29T05:51:14.450Z,40.88
2023-11-29T05:56:17.427Z,53.63
2023-11-29T06:01:21.449Z,31.95
2023-11-29T06:06:24.345Z,53.17
2023-11-29T06:11:30.572Z,30.38
2023-11-29T06:16:35.106Z,24.65
2023-11-29T06:21:40.638Z,16.20
2023-11-29T06:26:46.496Z,15.35
2023-11-29T06:31:49.705Z,13.68
2023-11-29T06:36:52.896Z,12.02
2023-11-29T06:41:55.727Z,7.47
2023-11-29T06:47:01.655Z,10.75
2023-11-29T06:52:04.964Z,14.45
2023-11-29T06:57:07.757Z,20.20
2023-11-29T07:02:10.783Z,20.58
2023-11-29T07:07:13.871Z,25.65
2023-11-29T07:12:24.048Z,25.63
2023-11-29T07:17:27.680Z,21.23
2023-11-29T07:22:30.498Z,22.70
2023-11-29T07:27:34.266Z,27.80
2023-11-29T07:32:38.003Z,19.58
2023-11-29T07:37:41.035Z,26.35
2023-11-29T07:42:44.253Z,20.88
2023-11-29T07:47:47.185Z,17.23
2023-11-29T07:52:50.548Z,27.33
2023-11-29T07:57:53.725Z,16.35
2023-11-29T08:02:56.718Z,16.35
2023-11-29T08:07:59.785Z,18.08
2023-11-29T08:13:02.671Z,20.52
2023-11-29T08:18:05.974Z,19.42
2023-11-29T08:23:08.792Z,12.77
2023-11-29T08:28:11.933Z,15.65
2023-11-29T08:33:16.211Z,22.92
2023-11-29T08:38:21.659Z,15.88
2023-11-29T08:43:24.695Z,14.95
2023-11-29T08:48:27.741Z,12.65
2023-11-29T08:53:37.732Z,13.05
2023-11-29T08:58:44.016Z,13.40
2023-11-29T09:03:47.277Z,11.55
2023-11-29T09:08:51.305Z,15.55
2023-11-29T09:13:54.159Z,18.35
2023-11-29T09:18:57.221Z,14.38
2023-11-29T09:24:00.095Z,10.63
2023-11-29T09:29:03.634Z,10.27
2023-11-29T09:34:06.928Z,9.70
2023-11-29T09:39:14.441Z,7.80
2023-11-29T09:44:17.708Z,21.63
2023-11-29T09:49:21.809Z,18.25
2023-11-29T09:54:26.134Z,11.23
2023-11-29T09:59:29.078Z,21.67
2023-11-29T10:04:36.544Z,37.50
2023-11-29T10:09:40.412Z,20.50
2023-11-29T10:14:43.412Z,8.27
2023-11-29T10:19:47.905Z,10.13
2023-11-29T10:24:50.891Z,7.53
2023-11-29T10:29:54.369Z,11.15
2023-11-29T10:34:59.226Z,14.88
2023-11-29T10:40:04.047Z,12.93
2023-11-29T10:45:10.974Z,8.15
2023-11-29T10:50:16.670Z,20.35
2023-11-29T10:55:22.698Z,42.83
2023-11-29T11:00:30.138Z,29.08
2023-11-29T11:05:33.429Z,9.68
2023-11-29T11:10:37.096Z,11.88
2023-11-29T11:15:41.984Z,10.13
2023-11-29T11:20:50.596Z,9.68
2023-11-29T11:25:57.328Z,29.98
2023-11-29T11:31:03.923Z,18.65
2023-11-29T11:36:07.306Z,8.77
2023-11-29T11:41:10.228Z,14.00
2023-11-29T11:46:13.676Z,10.77
2023-11-29T11:51:21.822Z,20.25
2023-11-29T11:56:24.802Z,27.88
2023-11-29T12:01:30.638Z,11.63
2023-11-29T12:06:34.003Z,9.65
2023-11-29T12:11:38.453Z,13.70
2023-11-29T12:16:41.528Z,19.77
2023-11-29T12:21:44.683Z,16.92
2023-11-29T12:26:47.989Z,16.05
2023-11-29T12:31:51.086Z,14.52
2023-11-29T12:36:58.875Z,21.20
2023-11-29T12:42:02.248Z,24.13
2023-11-29T12:47:06.390Z,21.20
2023-11-29T12:52:09.396Z,16.00
2023-11-29T12:57:12.661Z,10.05
2023-11-29T13:02:15.799Z,16.90
2023-11-29T13:07:19.932Z,19.25
2023-11-29T13:12:22.865Z,12.90
2023-11-29T13:17:26.040Z,11.27
2023-11-29T13:22:29.026Z,9.25
2023-11-29T13:27:31.900Z,13.55
2023-11-29T13:32:34.762Z,7.38
2023-11-29T13:37:37.781Z,23.75
2023-11-29T13:42:40.950Z,21.52
2023-11-29T13:47:44.090Z,18.23
2023-11-29T13:52:47.305Z,21.20
2023-11-29T13:57:50.288Z,13.98
2023-11-29T14:02:53.768Z,4.30
2023-11-29T14:07:56.819Z,6.72
2023-11-29T14:12:59.489Z,6.28
2023-11-29T14:18:03.993Z,4.03
2023-11-29T14:23:06.726Z,4.88
2023-11-29T14:28:10.106Z,6.32
2023-11-29T14:33:13.421Z,5.07
2023-11-29T14:38:16.618Z,4.55
2023-11-29T14:43:19.746Z,3.88
2023-11-29T14:48:22.878Z,6.50
2023-11-29T14:53:25.919Z,5.80
2023-11-29T14:58:28.833Z,7.32
2023-11-29T15:03:31.727Z,2.85
2023-11-29T15:08:34.794Z,4.28
2023-11-29T15:13:42.146Z,3.42
2023-11-29T15:18:45.575Z,4.78
2023-11-29T15:23:48.483Z,6.28
2023-11-29T15:28:51.451Z,6.68
2023-11-29T15:33:54.556Z,7.03
2023-11-29T15:38:58.568Z,5.18
2023-11-29T15:44:01.681Z,5.90
2023-11-29T15:49:06.372Z,6.55
2023-11-29T15:54:09.175Z,7.07
2023-11-29T15:59:12.156Z,7.53
2023-11-29T16:04:14.928Z,10.65
2023-11-29T16:09:18.110Z,6.25
2023-11-29T16:14:21.433Z,6.70
2023-11-29T16:19:24.454Z,7.85
2023-11-29T16:24:27.371Z,11.05
2023-11-29T16:29:30.510Z,6.93
2023-11-29T16:34:33.308Z,7.55
2023-11-29T16:39:36.377Z,8.10
2023-11-29T16:44:39.849Z,5.97
2023-11-29T16:49:42.644Z,8.20
2023-11-29T16:54:45.882Z,8.95
2023-11-29T16:59:48.879Z,7.28
2023-11-29T17:04:52.172Z,7.03
2023-11-29T17:09:58.744Z,5.57
2023-11-29T17:20:05.464Z,6.93
2023-11-29T17:25:09.416Z,9.20
2023-11-29T17:30:13.716Z,5.97
2023-11-29T17:35:17.580Z,5.60
2023-11-29T17:40:20.355Z,4.43
2023-11-29T17:45:24.341Z,9.30
2023-11-29T17:50:27.276Z,6.85
2023-11-29T17:55:30.291Z,7.07
2023-11-29T18:00:33.301Z,6.97
2023-11-29T18:05:37.056Z,12.70
2023-11-29T18:10:51.752Z,9.48
2023-11-29T18:15:55.650Z,8.65
2023-11-29T18:20:58.521Z,12.98
2023-11-29T18:26:04.981Z,6.25
2023-11-29T18:31:08.363Z,7.70
2023-11-29T18:36:11.579Z,9.10
2023-11-29T18:41:14.652Z,9.57
2023-11-29T18:46:17.688Z,9.52
2023-11-29T18:51:20.732Z,7.45
2023-11-29T18:56:23.721Z,9.85
2023-11-29T19:01:26.840Z,7.65
2023-11-29T19:06:29.602Z,9.07
2023-11-29T19:11:32.416Z,8.85
2023-11-29T19:16:35.800Z,9.98
2023-11-29T19:21:38.472Z,6.20
2023-11-29T19:26:41.624Z,10.38
2023-11-29T19:31:48.052Z,10.38
2023-11-29T19:36:51.391Z,13.52
2023-11-29T19:41:54.493Z,6.50
2023-11-29T19:47:07.189Z,8.38
2023-11-29T19:52:16.955Z,6.40
2023-11-29T19:57:20.611Z,8.50
2023-11-29T20:02:24.009Z,6.53
2023-11-29T20:07:27.409Z,7.70
2023-11-29T20:12:30.091Z,6.05
2023-11-29T20:17:33.391Z,8.18
2023-11-29T20:22:36.792Z,9.30
2023-11-29T20:27:43.054Z,7.00
2023-11-29T20:32:45.768Z,6.43
2023-11-29T20:37:48.618Z,7.43
2023-11-29T20:42:52.455Z,6.90
2023-11-29T20:47:55.477Z,7.25
2023-11-29T20:53:05.715Z,13.45
2023-11-29T20:58:18.550Z,8.60
2023-11-29T21:03:21.983Z,14.98
2023-11-29T21:08:25.122Z,7.97
2023-11-29T21:13:28.295Z,5.45
2023-11-29T21:18:31.498Z,9.93
2023-11-29T21:23:34.420Z,12.63
2023-11-29T21:28:39.308Z,9.18
2023-11-29T21:33:42.303Z,7.68
2023-11-29T21:38:45.439Z,5.90
2023-11-29T21:43:48.394Z,8.98
2023-11-29T21:48:51.372Z,7.10
2023-11-29T21:53:54.378Z,8.18
2023-11-29T21:58:57.107Z,7.85
2023-11-29T22:04:00.253Z,6.93
2023-11-29T22:09:03.115Z,8.52
2023-11-29T22:14:06.025Z,5.85
2023-11-29T22:19:10.330Z,7.90
2023-11-29T22:24:13.067Z,7.88
2023-11-29T22:29:16.190Z,7.18
2023-11-29T22:34:19.258Z,10.15
2023-11-29T22:39:22.336Z,5.57
2023-11-29T22:44:25.668Z,4.43
2023-11-29T22:49:28.899Z,7.80
2023-11-29T22:54:32.206Z,10.60
2023-11-29T22:59:35.028Z,5.03
2023-11-29T23:04:38.093Z,6.90
2023-11-29T23:09:41.914Z,7.53
2023-11-29T23:14:45.021Z,4.55
2023-11-29T23:19:48.921Z,9.27
2023-11-29T23:24:51.984Z,6.82
2023-11-29T23:29:54.783Z,5.38
2023-11-29T23:34:57.908Z,7.40
2023-11-29T23:40:00.728Z,8.32
2023-11-29T23:45:04.357Z,3.90
2023-11-29T23:50:09.422Z,6.10
2023-11-29T23:55:12.304Z,6.55
